sensor_id;sensor_type;location;lat;lon;timestamp;temperature;humidity
35894;DHT22;21994;48.204;16.516;2023-06-22T00:02:37;19.60;99.90
35894;DHT22;21994;48.204;16.516;2023-06-22T00:05:12;19.60;99.90
35894;DHT22;21994;48.204;16.516;2023-06-22T00:07:42;19.60;99.90
35894;DHT22;21994;48.204;16.516;2023-06-22T00:10:08;19.60;99.90
35894;DHT22;21994;48.204;16.516;2023-06-22T00:12:34;19.50;99.90
35894;DHT22;21994;48.204;16.516;2023-06-22T00:15:00;19.50;99.90
35894;DHT22;21994;48.204;16.516;2023-06-22T00:17:26;19.60;99.90
35894;DHT22;21994;48.204;16.516;2023-06-22T00:19:52;19.60;99.90
35894;DHT22;21994;48.204;16.516;2023-06-22T00:22:21;19.60;99.90
35894;DHT22;21994;48.204;16.516;2023-06-22T00:24:55;19.60;99.90
35894;DHT22;21994;48.204;16.516;2023-06-22T00:27:21;19.50;99.90
35894;DHT22;21994;48.204;16.516;2023-06-22T00:29:47;19.50;99.90
35894;DHT22;21994;48.204;16.516;2023-06-22T00:32:13;19.50;99.90
35894;DHT22;21994;48.204;16.516;2023-06-22T00:34:39;19.40;99.90
35894;DHT22;21994;48.204;16.516;2023-06-22T00:37:05;19.30;99.90
35894;DHT22;21994;48.204;16.516;2023-06-22T00:39:30;19.30;99.90
35894;DHT22;21994;48.204;16.516;2023-06-22T00:41:59;19.30;99.90
35894;DHT22;21994;48.204;16.516;2023-06-22T00:44:25;19.20;99.90
35894;DHT22;21994;48.204;16.516;2023-06-22T00:46:54;19.20;99.90
35894;DHT22;21994;48.204;16.516;2023-06-22T00:49:20;19.10;99.90
35894;DHT22;21994;48.204;16.516;2023-06-22T00:51:46;19.10;99.90
35894;DHT22;21994;48.204;16.516;2023-06-22T00:54:13;19.10;99.90
35894;DHT22;21994;48.204;16.516;2023-06-22T00:56:41;19.10;99.90
35894;DHT22;21994;48.204;16.516;2023-06-22T00:59:08;19.10;99.90
35894;DHT22;21994;48.204;16.516;2023-06-22T01:01:37;19.00;99.90
35894;DHT22;21994;48.204;16.516;2023-06-22T01:04:06;19.00;99.90
35894;DHT22;21994;48.204;16.516;2023-06-22T01:06:38;19.00;99.90
35894;DHT22;21994;48.204;16.516;2023-06-22T01:09:12;19.10;99.90
35894;DHT22;21994;48.204;16.516;2023-06-22T01:12:02;19.10;99.90
35894;DHT22;21994;48.204;16.516;2023-06-22T01:14:36;19.00;99.90
35894;DHT22;21994;48.204;16.516;2023-06-22T01:17:08;18.90;99.90
35894;DHT22;21994;48.204;16.516;2023-06-22T01:19:51;18.90;99.90
35894;DHT22;21994;48.204;16.516;2023-06-22T01:22:30;18.90;99.90
35894;DHT22;21994;48.204;16.516;2023-06-22T01:30:41;18.80;99.90
35894;DHT22;21994;48.204;16.516;2023-06-22T01:33:11;18.80;99.90
35894;DHT22;21994;48.204;16.516;2023-06-22T01:35:39;18.80;99.90
35894;DHT22;21994;48.204;16.516;2023-06-22T01:38:05;18.80;99.90
35894;DHT22;21994;48.204;16.516;2023-06-22T01:40:33;18.80;99.90
35894;DHT22;21994;48.204;16.516;2023-06-22T01:43:03;18.70;99.90
35894;DHT22;21994;48.204;16.516;2023-06-22T01:45:30;18.80;99.90
35894;DHT22;21994;48.204;16.516;2023-06-22T01:47:56;18.70;99.90
35894;DHT22;21994;48.204;16.516;2023-06-22T01:50:22;18.70;99.90
35894;DHT22;21994;48.204;16.516;2023-06-22T01:52:48;18.60;99.90
35894;DHT22;21994;48.204;16.516;2023-06-22T01:55:14;18.60;99.90
35894;DHT22;21994;48.204;16.516;2023-06-22T01:57:40;18.60;99.90
35894;DHT22;21994;48.204;16.516;2023-06-22T02:00:20;18.50;99.90
35894;DHT22;21994;48.204;16.516;2023-06-22T02:03:10;18.50;99.90
35894;DHT22;21994;48.204;16.516;2023-06-22T02:05:47;18.50;99.90
35894;DHT22;21994;48.204;16.516;2023-06-22T02:08:30;18.40;99.90
35894;DHT22;21994;48.204;16.516;2023-06-22T02:10:59;18.40;99.90
35894;DHT22;21994;48.204;16.516;2023-06-22T02:13:26;18.50;99.90
35894;DHT22;21994;48.204;16.516;2023-06-22T02:15:53;18.50;99.90
35894;DHT22;21994;48.204;16.516;2023-06-22T02:18:19;18.50;99.90
35894;DHT22;21994;48.204;16.516;2023-06-22T02:20:46;18.50;99.90
35894;DHT22;21994;48.204;16.516;2023-06-22T02:23:12;18.40;99.90
35894;DHT22;21994;48.204;16.516;2023-06-22T02:25:38;18.50;99.90
35894;DHT22;21994;48.204;16.516;2023-06-22T02:28:05;18.50;99.90
35894;DHT22;21994;48.204;16.516;2023-06-22T02:30:32;18.40;99.90
35894;DHT22;21994;48.204;16.516;2023-06-22T02:32:58;18.40;99.90
35894;DHT22;21994;48.204;16.516;2023-06-22T02:35:30;18.40;99.90
35894;DHT22;21994;48.204;16.516;2023-06-22T02:38:00;18.30;99.90
35894;DHT22;21994;48.204;16.516;2023-06-22T02:40:28;18.20;99.90
35894;DHT22;21994;48.204;16.516;2023-06-22T02:42:55;18.20;99.90
35894;DHT22;21994;48.204;16.516;2023-06-22T02:45:23;18.20;99.90
35894;DHT22;21994;48.204;16.516;2023-06-22T02:47:49;18.20;99.90
35894;DHT22;21994;48.204;16.516;2023-06-22T02:50:15;18.20;99.90
35894;DHT22;21994;48.204;16.516;2023-06-22T02:52:41;18.20;99.90
35894;DHT22;21994;48.204;16.516;2023-06-22T02:55:07;18.20;99.90
35894;DHT22;21994;48.204;16.516;2023-06-22T02:57:34;18.10;99.90
35894;DHT22;21994;48.204;16.516;2023-06-22T03:00:01;18.10;99.90
35894;DHT22;21994;48.204;16.516;2023-06-22T03:02:28;18.10;99.90
35894;DHT22;21994;48.204;16.516;2023-06-22T03:04:54;18.00;99.90
35894;DHT22;21994;48.204;16.516;2023-06-22T03:07:20;18.10;99.90
35894;DHT22;21994;48.204;16.516;2023-06-22T03:09:46;18.10;99.90
35894;DHT22;21994;48.204;16.516;2023-06-22T03:12:12;18.10;99.90
35894;DHT22;21994;48.204;16.516;2023-06-22T03:14:38;18.10;99.90
35894;DHT22;21994;48.204;16.516;2023-06-22T03:17:04;18.00;99.90
35894;DHT22;21994;48.204;16.516;2023-06-22T03:19:31;18.00;99.90
35894;DHT22;21994;48.204;16.516;2023-06-22T03:21:59;18.00;99.90
35894;DHT22;21994;48.204;16.516;2023-06-22T03:24:25;18.00;99.90
35894;DHT22;21994;48.204;16.516;2023-06-22T03:26:56;18.00;99.90
35894;DHT22;21994;48.204;16.516;2023-06-22T03:29:23;18.00;99.90
35894;DHT22;21994;48.204;16.516;2023-06-22T03:31:49;18.00;99.90
35894;DHT22;21994;48.204;16.516;2023-06-22T03:34:15;18.00;99.90
35894;DHT22;21994;48.204;16.516;2023-06-22T03:36:41;18.00;99.90
35894;DHT22;21994;48.204;16.516;2023-06-22T03:39:08;18.00;99.90
35894;DHT22;21994;48.204;16.516;2023-06-22T03:41:36;18.00;99.90
35894;DHT22;21994;48.204;16.516;2023-06-22T03:44:02;18.00;99.90
35894;DHT22;21994;48.204;16.516;2023-06-22T03:46:28;18.00;99.90
35894;DHT22;21994;48.204;16.516;2023-06-22T03:48:54;18.10;99.90
35894;DHT22;21994;48.204;16.516;2023-06-22T03:51:20;18.10;99.90
35894;DHT22;21994;48.204;16.516;2023-06-22T03:53:46;18.10;99.90
35894;DHT22;21994;48.204;16.516;2023-06-22T03:56:13;18.20;99.90
35894;DHT22;21994;48.204;16.516;2023-06-22T03:58:45;18.20;99.90
35894;DHT22;21994;48.204;16.516;2023-06-22T04:01:11;18.30;99.90
35894;DHT22;21994;48.204;16.516;2023-06-22T04:03:38;18.30;99.90
35894;DHT22;21994;48.204;16.516;2023-06-22T04:06:04;18.40;99.90
35894;DHT22;21994;48.204;16.516;2023-06-22T04:08:30;18.40;99.90
35894;DHT22;21994;48.204;16.516;2023-06-22T04:10:58;18.50;99.90
35894;DHT22;21994;48.204;16.516;2023-06-22T04:13:24;18.60;99.90
35894;DHT22;21994;48.204;16.516;2023-06-22T04:15:49;18.60;99.90
35894;DHT22;21994;48.204;16.516;2023-06-22T04:18:15;18.70;99.90
35894;DHT22;21994;48.204;16.516;2023-06-22T04:20:41;18.70;99.90
35894;DHT22;21994;48.204;16.516;2023-06-22T04:23:09;18.80;99.90
35894;DHT22;21994;48.204;16.516;2023-06-22T04:25:35;18.90;99.90
35894;DHT22;21994;48.204;16.516;2023-06-22T04:28:01;18.90;99.90
35894;DHT22;21994;48.204;16.516;2023-06-22T04:30:28;18.90;99.90
35894;DHT22;21994;48.204;16.516;2023-06-22T04:32:57;19.00;99.90
35894;DHT22;21994;48.204;16.516;2023-06-22T04:35:24;19.10;99.90
35894;DHT22;21994;48.204;16.516;2023-06-22T04:37:50;19.20;99.90
35894;DHT22;21994;48.204;16.516;2023-06-22T04:40:22;19.30;99.90
35894;DHT22;21994;48.204;16.516;2023-06-22T04:42:48;19.40;99.90
35894;DHT22;21994;48.204;16.516;2023-06-22T04:45:19;19.60;99.90
35894;DHT22;21994;48.204;16.516;2023-06-22T04:47:45;19.70;99.90
35894;DHT22;21994;48.204;16.516;2023-06-22T04:50:12;19.80;99.90
35894;DHT22;21994;48.204;16.516;2023-06-22T04:52:40;19.80;99.90
35894;DHT22;21994;48.204;16.516;2023-06-22T04:55:07;19.80;99.90
35894;DHT22;21994;48.204;16.516;2023-06-22T04:57:34;19.90;99.90
35894;DHT22;21994;48.204;16.516;2023-06-22T05:00:00;20.00;99.90
35894;DHT22;21994;48.204;16.516;2023-06-22T05:02:38;20.00;99.90
35894;DHT22;21994;48.204;16.516;2023-06-22T05:05:04;20.00;99.90
35894;DHT22;21994;48.204;16.516;2023-06-22T05:07:33;20.10;99.90
35894;DHT22;21994;48.204;16.516;2023-06-22T05:10:03;20.20;99.90
35894;DHT22;21994;48.204;16.516;2023-06-22T05:12:30;20.30;99.90
35894;DHT22;21994;48.204;16.516;2023-06-22T05:14:57;20.30;99.90
35894;DHT22;21994;48.204;16.516;2023-06-22T05:17:23;20.30;99.90
35894;DHT22;21994;48.204;16.516;2023-06-22T05:19:49;20.30;99.90
35894;DHT22;21994;48.204;16.516;2023-06-22T05:22:15;20.30;99.90
35894;DHT22;21994;48.204;16.516;2023-06-22T05:24:42;20.50;99.90
35894;DHT22;21994;48.204;16.516;2023-06-22T05:27:09;20.50;99.90
35894;DHT22;21994;48.204;16.516;2023-06-22T05:29:36;20.40;99.90
35894;DHT22;21994;48.204;16.516;2023-06-22T05:32:03;20.50;99.90
35894;DHT22;21994;48.204;16.516;2023-06-22T05:34:29;20.70;99.90
35894;DHT22;21994;48.204;16.516;2023-06-22T05:36:55;20.80;99.90
35894;DHT22;21994;48.204;16.516;2023-06-22T05:39:21;20.90;99.90
35894;DHT22;21994;48.204;16.516;2023-06-22T05:41:47;21.00;99.90
35894;DHT22;21994;48.204;16.516;2023-06-22T05:44:13;21.00;99.90
35894;DHT22;21994;48.204;16.516;2023-06-22T05:46:43;20.90;99.90
35894;DHT22;21994;48.204;16.516;2023-06-22T05:49:14;21.00;99.90
35894;DHT22;21994;48.204;16.516;2023-06-22T05:51:40;21.20;99.90
35894;DHT22;21994;48.204;16.516;2023-06-22T05:54:06;21.30;99.90
35894;DHT22;21994;48.204;16.516;2023-06-22T05:56:34;21.40;99.90
35894;DHT22;21994;48.204;16.516;2023-06-22T05:59:00;21.40;99.90
35894;DHT22;21994;48.204;16.516;2023-06-22T06:01:26;21.50;99.90
35894;DHT22;21994;48.204;16.516;2023-06-22T06:03:52;21.50;99.90
35894;DHT22;21994;48.204;16.516;2023-06-22T06:06:18;21.60;99.90
35894;DHT22;21994;48.204;16.516;2023-06-22T06:08:54;21.70;99.90
35894;DHT22;21994;48.204;16.516;2023-06-22T06:11:21;21.60;99.90
35894;DHT22;21994;48.204;16.516;2023-06-22T06:13:47;21.70;99.90
35894;DHT22;21994;48.204;16.516;2023-06-22T06:16:13;21.90;99.90
35894;DHT22;21994;48.204;16.516;2023-06-22T06:18:39;21.90;99.90
35894;DHT22;21994;48.204;16.516;2023-06-22T06:21:05;22.00;99.90
35894;DHT22;21994;48.204;16.516;2023-06-22T06:23:31;22.10;99.90
35894;DHT22;21994;48.204;16.516;2023-06-22T06:25:57;22.10;99.90
35894;DHT22;21994;48.204;16.516;2023-06-22T06:28:25;22.10;99.90
35894;DHT22;21994;48.204;16.516;2023-06-22T06:30:51;22.20;99.90
35894;DHT22;21994;48.204;16.516;2023-06-22T06:33:17;22.30;99.90
35894;DHT22;21994;48.204;16.516;2023-06-22T06:35:43;22.40;99.90
35894;DHT22;21994;48.204;16.516;2023-06-22T06:38:09;22.50;99.90
35894;DHT22;21994;48.204;16.516;2023-06-22T06:40:36;22.70;99.90
35894;DHT22;21994;48.204;16.516;2023-06-22T06:43:02;22.80;99.90
35894;DHT22;21994;48.204;16.516;2023-06-22T06:45:28;22.90;99.90
35894;DHT22;21994;48.204;16.516;2023-06-22T06:47:56;22.80;99.90
35894;DHT22;21994;48.204;16.516;2023-06-22T06:50:22;22.90;99.90
35894;DHT22;21994;48.204;16.516;2023-06-22T06:52:48;23.10;99.90
35894;DHT22;21994;48.204;16.516;2023-06-22T06:55:15;23.30;99.90
35894;DHT22;21994;48.204;16.516;2023-06-22T06:57:42;23.50;99.90
35894;DHT22;21994;48.204;16.516;2023-06-22T07:00:10;23.60;99.90
35894;DHT22;21994;48.204;16.516;2023-06-22T07:02:40;23.80;99.90
35894;DHT22;21994;48.204;16.516;2023-06-22T07:05:08;24.00;99.90
35894;DHT22;21994;48.204;16.516;2023-06-22T07:07:38;23.90;99.90
35894;DHT22;21994;48.204;16.516;2023-06-22T07:10:05;24.00;99.90
35894;DHT22;21994;48.204;16.516;2023-06-22T07:12:31;24.20;99.90
35894;DHT22;21994;48.204;16.516;2023-06-22T07:15:03;24.40;99.90
35894;DHT22;21994;48.204;16.516;2023-06-22T07:17:31;24.60;99.90
35894;DHT22;21994;48.204;16.516;2023-06-22T07:19:57;24.70;99.90
35894;DHT22;21994;48.204;16.516;2023-06-22T07:22:23;24.90;99.90
35894;DHT22;21994;48.204;16.516;2023-06-22T07:24:48;25.10;99.90
35894;DHT22;21994;48.204;16.516;2023-06-22T07:27:15;25.10;99.90
35894;DHT22;21994;48.204;16.516;2023-06-22T07:29:44;25.20;99.90
35894;DHT22;21994;48.204;16.516;2023-06-22T07:32:10;25.30;99.90
35894;DHT22;21994;48.204;16.516;2023-06-22T07:34:36;25.30;99.90
35894;DHT22;21994;48.204;16.516;2023-06-22T07:37:02;25.40;99.90
35894;DHT22;21994;48.204;16.516;2023-06-22T07:39:30;25.50;99.90
35894;DHT22;21994;48.204;16.516;2023-06-22T07:41:56;25.70;99.90
35894;DHT22;21994;48.204;16.516;2023-06-22T07:44:22;25.70;99.90
35894;DHT22;21994;48.204;16.516;2023-06-22T07:46:48;25.70;99.90
35894;DHT22;21994;48.204;16.516;2023-06-22T07:49:14;26.10;99.90
35894;DHT22;21994;48.204;16.516;2023-06-22T07:51:39;26.30;99.90
35894;DHT22;21994;48.204;16.516;2023-06-22T07:54:05;26.50;99.90
35894;DHT22;21994;48.204;16.516;2023-06-22T07:56:32;26.60;99.90
35894;DHT22;21994;48.204;16.516;2023-06-22T07:58:58;26.60;99.90
35894;DHT22;21994;48.204;16.516;2023-06-22T08:01:26;26.60;99.90
35894;DHT22;21994;48.204;16.516;2023-06-22T08:03:52;26.80;99.90
35894;DHT22;21994;48.204;16.516;2023-06-22T08:06:18;26.60;99.90
35894;DHT22;21994;48.204;16.516;2023-06-22T08:08:43;26.80;99.90
35894;DHT22;21994;48.204;16.516;2023-06-22T08:11:13;27.00;99.90
35894;DHT22;21994;48.204;16.516;2023-06-22T08:13:39;27.20;99.90
35894;DHT22;21994;48.204;16.516;2023-06-22T08:16:05;27.30;99.90
35894;DHT22;21994;48.204;16.516;2023-06-22T08:18:32;27.60;99.90
35894;DHT22;21994;48.204;16.516;2023-06-22T08:20:58;27.70;99.90
35894;DHT22;21994;48.204;16.516;2023-06-22T08:23:24;27.80;99.90
35894;DHT22;21994;48.204;16.516;2023-06-22T08:25:50;28.00;99.90
35894;DHT22;21994;48.204;16.516;2023-06-22T08:28:16;28.10;99.90
35894;DHT22;21994;48.204;16.516;2023-06-22T08:30:42;28.20;99.90
35894;DHT22;21994;48.204;16.516;2023-06-22T08:33:11;28.30;99.90
35894;DHT22;21994;48.204;16.516;2023-06-22T08:35:38;28.50;99.90
35894;DHT22;21994;48.204;16.516;2023-06-22T08:38:04;28.80;99.90
35894;DHT22;21994;48.204;16.516;2023-06-22T08:40:30;28.80;99.90
35894;DHT22;21994;48.204;16.516;2023-06-22T08:42:56;29.00;99.90
35894;DHT22;21994;48.204;16.516;2023-06-22T08:45:22;29.00;99.90
35894;DHT22;21994;48.204;16.516;2023-06-22T08:47:47;28.60;99.90
35894;DHT22;21994;48.204;16.516;2023-06-22T08:50:13;28.80;99.90
35894;DHT22;21994;48.204;16.516;2023-06-22T08:52:40;28.80;99.90
35894;DHT22;21994;48.204;16.516;2023-06-22T08:55:11;28.80;99.90
35894;DHT22;21994;48.204;16.516;2023-06-22T08:57:37;28.90;99.90
35894;DHT22;21994;48.204;16.516;2023-06-22T09:00:08;29.30;99.90
35894;DHT22;21994;48.204;16.516;2023-06-22T09:02:42;29.60;99.90
35894;DHT22;21994;48.204;16.516;2023-06-22T09:05:11;29.80;99.90
35894;DHT22;21994;48.204;16.516;2023-06-22T09:07:37;29.90;99.90
35894;DHT22;21994;48.204;16.516;2023-06-22T09:10:04;30.10;99.90
35894;DHT22;21994;48.204;16.516;2023-06-22T09:12:31;30.00;99.90
35894;DHT22;21994;48.204;16.516;2023-06-22T09:14:59;30.10;99.90
35894;DHT22;21994;48.204;16.516;2023-06-22T09:17:26;30.50;99.90
35894;DHT22;21994;48.204;16.516;2023-06-22T09:19:53;30.60;99.90
35894;DHT22;21994;48.204;16.516;2023-06-22T09:22:19;30.80;99.90
35894;DHT22;21994;48.204;16.516;2023-06-22T09:24:45;30.70;99.90
35894;DHT22;21994;48.204;16.516;2023-06-22T09:27:11;30.70;99.90
35894;DHT22;21994;48.204;16.516;2023-06-22T09:29:37;31.00;99.90
35894;DHT22;21994;48.204;16.516;2023-06-22T09:32:03;31.10;99.90
35894;DHT22;21994;48.204;16.516;2023-06-22T09:34:30;31.40;99.30
35894;DHT22;21994;48.204;16.516;2023-06-22T09:36:57;31.50;99.70
35894;DHT22;21994;48.204;16.516;2023-06-22T09:39:26;31.60;99.40
35894;DHT22;21994;48.204;16.516;2023-06-22T09:41:52;31.80;98.50
35894;DHT22;21994;48.204;16.516;2023-06-22T09:44:18;31.50;97.70
35894;DHT22;21994;48.204;16.516;2023-06-22T09:46:44;31.90;98.00
35894;DHT22;21994;48.204;16.516;2023-06-22T09:49:10;32.10;98.70
35894;DHT22;21994;48.204;16.516;2023-06-22T09:51:35;32.10;98.00
35894;DHT22;21994;48.204;16.516;2023-06-22T09:54:01;32.20;97.50
35894;DHT22;21994;48.204;16.516;2023-06-22T09:56:27;32.40;98.10
35894;DHT22;21994;48.204;16.516;2023-06-22T09:58:54;32.60;97.60
35894;DHT22;21994;48.204;16.516;2023-06-22T10:01:23;32.90;97.80
35894;DHT22;21994;48.204;16.516;2023-06-22T10:03:52;33.00;96.70
35894;DHT22;21994;48.204;16.516;2023-06-22T10:06:21;32.70;96.60
35894;DHT22;21994;48.204;16.516;2023-06-22T10:08:47;33.00;97.60
35894;DHT22;21994;48.204;16.516;2023-06-22T10:11:16;33.30;95.20
35894;DHT22;21994;48.204;16.516;2023-06-22T10:13:42;33.70;94.00
35894;DHT22;21994;48.204;16.516;2023-06-22T10:16:07;34.10;94.90
35894;DHT22;21994;48.204;16.516;2023-06-22T10:18:33;34.60;93.20
35894;DHT22;21994;48.204;16.516;2023-06-22T10:20:59;34.90;92.90
35894;DHT22;21994;48.204;16.516;2023-06-22T10:23:25;34.40;93.60
35894;DHT22;21994;48.204;16.516;2023-06-22T10:25:51;34.70;92.90
35894;DHT22;21994;48.204;16.516;2023-06-22T10:28:17;35.20;92.30
35894;DHT22;21994;48.204;16.516;2023-06-22T10:30:43;35.10;92.40
35894;DHT22;21994;48.204;16.516;2023-06-22T10:33:11;35.40;91.00
35894;DHT22;21994;48.204;16.516;2023-06-22T10:35:37;35.60;91.30
35894;DHT22;21994;48.204;16.516;2023-06-22T10:38:04;35.50;89.30
35894;DHT22;21994;48.204;16.516;2023-06-22T10:40:30;35.70;89.70
35894;DHT22;21994;48.204;16.516;2023-06-22T10:42:56;35.90;88.20
35894;DHT22;21994;48.204;16.516;2023-06-22T10:45:22;35.90;90.30
35894;DHT22;21994;48.204;16.516;2023-06-22T10:47:48;35.60;88.60
35894;DHT22;21994;48.204;16.516;2023-06-22T10:50:14;35.70;90.30
35894;DHT22;21994;48.204;16.516;2023-06-22T10:52:40;35.80;88.50
35894;DHT22;21994;48.204;16.516;2023-06-22T10:55:10;35.80;91.80
35894;DHT22;21994;48.204;16.516;2023-06-22T10:57:36;36.00;88.80
35894;DHT22;21994;48.204;16.516;2023-06-22T11:00:03;36.00;87.30
35894;DHT22;21994;48.204;16.516;2023-06-22T11:02:32;35.80;90.90
35894;DHT22;21994;48.204;16.516;2023-06-22T11:04:58;35.60;91.00
35894;DHT22;21994;48.204;16.516;2023-06-22T11:07:26;36.20;89.30
35894;DHT22;21994;48.204;16.516;2023-06-22T11:09:54;36.00;89.20
35894;DHT22;21994;48.204;16.516;2023-06-22T11:12:20;36.00;88.30
35894;DHT22;21994;48.204;16.516;2023-06-22T11:14:46;35.90;85.20
35894;DHT22;21994;48.204;16.516;2023-06-22T11:17:12;35.70;86.20
35894;DHT22;21994;48.204;16.516;2023-06-22T11:19:38;35.70;89.50
35894;DHT22;21994;48.204;16.516;2023-06-22T11:22:04;35.60;90.20
35894;DHT22;21994;48.204;16.516;2023-06-22T11:24:31;35.40;90.00
35894;DHT22;21994;48.204;16.516;2023-06-22T11:26:58;34.80;89.50
35894;DHT22;21994;48.204;16.516;2023-06-22T11:29:24;34.50;89.10
35894;DHT22;21994;48.204;16.516;2023-06-22T11:31:49;34.30;90.80
35894;DHT22;21994;48.204;16.516;2023-06-22T11:34:15;34.10;90.50
35894;DHT22;21994;48.204;16.516;2023-06-22T11:36:41;34.00;91.90
35894;DHT22;21994;48.204;16.516;2023-06-22T11:39:08;34.10;89.40
35894;DHT22;21994;48.204;16.516;2023-06-22T11:41:35;34.00;90.00
35894;DHT22;21994;48.204;16.516;2023-06-22T11:44:01;33.50;91.10
35894;DHT22;21994;48.204;16.516;2023-06-22T11:46:27;33.40;91.10
35894;DHT22;21994;48.204;16.516;2023-06-22T11:48:52;33.30;92.70
35894;DHT22;21994;48.204;16.516;2023-06-22T11:51:18;33.30;90.50
35894;DHT22;21994;48.204;16.516;2023-06-22T11:53:44;33.50;91.20
35894;DHT22;21994;48.204;16.516;2023-06-22T11:56:10;33.60;92.20
35894;DHT22;21994;48.204;16.516;2023-06-22T11:58:36;33.60;90.40
35894;DHT22;21994;48.204;16.516;2023-06-22T12:01:02;33.40;92.30
35894;DHT22;21994;48.204;16.516;2023-06-22T12:03:28;33.30;90.20
35894;DHT22;21994;48.204;16.516;2023-06-22T12:05:54;33.10;91.50
35894;DHT22;21994;48.204;16.516;2023-06-22T12:08:20;33.00;91.60
35894;DHT22;21994;48.204;16.516;2023-06-22T12:10:46;33.10;92.90
35894;DHT22;21994;48.204;16.516;2023-06-22T12:13:12;33.30;92.10
35894;DHT22;21994;48.204;16.516;2023-06-22T12:15:38;33.40;92.50
35894;DHT22;21994;48.204;16.516;2023-06-22T12:18:04;33.60;92.20
35894;DHT22;21994;48.204;16.516;2023-06-22T12:20:30;33.40;91.00
35894;DHT22;21994;48.204;16.516;2023-06-22T12:22:57;33.40;92.30
35894;DHT22;21994;48.204;16.516;2023-06-22T12:25:23;33.50;92.50
35894;DHT22;21994;48.204;16.516;2023-06-22T12:27:50;33.60;91.00
35894;DHT22;21994;48.204;16.516;2023-06-22T12:30:16;33.60;91.50
35894;DHT22;21994;48.204;16.516;2023-06-22T12:32:42;33.50;92.90
35894;DHT22;21994;48.204;16.516;2023-06-22T12:35:08;33.60;92.70
35894;DHT22;21994;48.204;16.516;2023-06-22T12:37:42;33.40;92.60
35894;DHT22;21994;48.204;16.516;2023-06-22T12:40:18;33.40;91.20
35894;DHT22;21994;48.204;16.516;2023-06-22T12:42:45;33.40;91.30
35894;DHT22;21994;48.204;16.516;2023-06-22T12:45:11;33.50;91.70
35894;DHT22;21994;48.204;16.516;2023-06-22T12:47:37;33.70;92.10
35894;DHT22;21994;48.204;16.516;2023-06-22T12:50:03;33.50;91.90
35894;DHT22;21994;48.204;16.516;2023-06-22T12:52:30;33.60;91.40
35894;DHT22;21994;48.204;16.516;2023-06-22T12:54:57;33.70;91.10
35894;DHT22;21994;48.204;16.516;2023-06-22T12:57:23;33.40;92.60
35894;DHT22;21994;48.204;16.516;2023-06-22T12:59:50;33.20;92.20
35894;DHT22;21994;48.204;16.516;2023-06-22T13:02:16;33.10;92.30
35894;DHT22;21994;48.204;16.516;2023-06-22T13:04:42;33.10;91.40
35894;DHT22;21994;48.204;16.516;2023-06-22T13:07:08;33.10;93.00
35894;DHT22;21994;48.204;16.516;2023-06-22T13:09:36;33.20;92.70
35894;DHT22;21994;48.204;16.516;2023-06-22T13:12:02;33.20;92.00
35894;DHT22;21994;48.204;16.516;2023-06-22T13:14:28;33.30;93.50
35894;DHT22;21994;48.204;16.516;2023-06-22T13:16:54;33.40;93.50
35894;DHT22;21994;48.204;16.516;2023-06-22T13:19:20;33.40;93.90
35894;DHT22;21994;48.204;16.516;2023-06-22T13:21:46;33.40;94.10
35894;DHT22;21994;48.204;16.516;2023-06-22T13:24:12;33.50;92.40
35894;DHT22;21994;48.204;16.516;2023-06-22T13:26:39;33.40;91.40
35894;DHT22;21994;48.204;16.516;2023-06-22T13:29:05;33.30;91.00
35894;DHT22;21994;48.204;16.516;2023-06-22T13:31:31;33.20;93.00
35894;DHT22;21994;48.204;16.516;2023-06-22T13:33:57;33.30;93.00
35894;DHT22;21994;48.204;16.516;2023-06-22T13:36:23;33.30;92.10
35894;DHT22;21994;48.204;16.516;2023-06-22T13:38:49;33.30;92.50
35894;DHT22;21994;48.204;16.516;2023-06-22T13:41:15;33.20;92.70
35894;DHT22;21994;48.204;16.516;2023-06-22T13:43:40;33.30;93.80
35894;DHT22;21994;48.204;16.516;2023-06-22T13:46:06;33.40;93.00
35894;DHT22;21994;48.204;16.516;2023-06-22T13:48:35;33.70;93.40
35894;DHT22;21994;48.204;16.516;2023-06-22T13:51:01;33.70;91.70
35894;DHT22;21994;48.204;16.516;2023-06-22T13:53:27;33.60;91.60
35894;DHT22;21994;48.204;16.516;2023-06-22T13:55:53;33.70;92.40
35894;DHT22;21994;48.204;16.516;2023-06-22T13:58:19;33.50;92.50
35894;DHT22;21994;48.204;16.516;2023-06-22T14:00:48;33.40;92.20
35894;DHT22;21994;48.204;16.516;2023-06-22T14:03:14;33.20;91.90
35894;DHT22;21994;48.204;16.516;2023-06-22T14:05:42;33.10;92.00
35894;DHT22;21994;48.204;16.516;2023-06-22T14:08:08;33.20;92.80
35894;DHT22;21994;48.204;16.516;2023-06-22T14:10:35;33.40;92.50
35894;DHT22;21994;48.204;16.516;2023-06-22T14:13:01;33.50;94.90
35894;DHT22;21994;48.204;16.516;2023-06-22T14:15:27;33.70;93.00
35894;DHT22;21994;48.204;16.516;2023-06-22T14:17:52;33.60;92.30
35894;DHT22;21994;48.204;16.516;2023-06-22T14:20:18;33.50;91.50
35894;DHT22;21994;48.204;16.516;2023-06-22T14:22:44;33.30;92.30
35894;DHT22;21994;48.204;16.516;2023-06-22T14:25:10;33.30;92.40
35894;DHT22;21994;48.204;16.516;2023-06-22T14:27:36;33.10;92.80
35894;DHT22;21994;48.204;16.516;2023-06-22T14:30:02;33.10;92.30
35894;DHT22;21994;48.204;16.516;2023-06-22T14:32:29;33.10;94.00
35894;DHT22;21994;48.204;16.516;2023-06-22T14:34:55;33.20;92.80
35894;DHT22;21994;48.204;16.516;2023-06-22T14:37:21;33.10;93.40
35894;DHT22;21994;48.204;16.516;2023-06-22T14:39:47;33.10;92.10
35894;DHT22;21994;48.204;16.516;2023-06-22T14:42:13;33.00;92.10
35894;DHT22;21994;48.204;16.516;2023-06-22T14:44:39;33.00;92.70
35894;DHT22;21994;48.204;16.516;2023-06-22T14:47:05;33.00;92.40
35894;DHT22;21994;48.204;16.516;2023-06-22T14:49:31;32.90;92.40
35894;DHT22;21994;48.204;16.516;2023-06-22T14:51:57;32.90;92.50
35894;DHT22;21994;48.204;16.516;2023-06-22T14:54:23;33.00;93.40
35894;DHT22;21994;48.204;16.516;2023-06-22T14:56:50;33.00;92.30
35894;DHT22;21994;48.204;16.516;2023-06-22T14:59:16;33.00;93.50
35894;DHT22;21994;48.204;16.516;2023-06-22T15:01:42;32.80;93.30
35894;DHT22;21994;48.204;16.516;2023-06-22T15:04:08;33.00;93.10
35894;DHT22;21994;48.204;16.516;2023-06-22T15:06:33;33.00;92.60
35894;DHT22;21994;48.204;16.516;2023-06-22T15:08:59;32.80;94.10
35894;DHT22;21994;48.204;16.516;2023-06-22T15:11:25;32.60;92.10
35894;DHT22;21994;48.204;16.516;2023-06-22T15:13:51;32.40;92.70
35894;DHT22;21994;48.204;16.516;2023-06-22T15:16:17;32.20;92.90
35894;DHT22;21994;48.204;16.516;2023-06-22T15:18:43;32.00;92.30
35894;DHT22;21994;48.204;16.516;2023-06-22T15:21:10;31.90;93.10